createdAt,value
2019-03-25T00:00:33.101Z,26.60
2019-03-25T00:03:01.079Z,26.57
2019-03-25T00:05:29.094Z,24.57
2019-03-25T00:07:57.061Z,23.07
2019-03-25T00:10:25.000Z,23.00
2019-03-25T00:12:52.864Z,25.30
2019-03-25T00:15:20.839Z,26.70
2019-03-25T00:17:48.724Z,23.73
2019-03-25T00:20:16.622Z,22.80
2019-03-25T00:22:44.623Z,24.35
2019-03-25T00:25:12.597Z,22.22
2019-03-25T00:27:40.485Z,22.70
2019-03-25T00:30:08.466Z,22.60
2019-03-25T00:32:36.727Z,24.05
2019-03-25T00:35:04.805Z,24.85
2019-03-25T00:37:32.783Z,21.12
2019-03-25T00:40:01.584Z,23.02
2019-03-25T00:42:29.581Z,23.22
2019-03-25T00:44:57.455Z,25.02
2019-03-25T00:47:25.352Z,21.40
2019-03-25T00:49:53.591Z,23.42
2019-03-25T00:52:21.597Z,17.45
2019-03-25T00:54:50.414Z,20.35
2019-03-25T00:57:18.543Z,20.40
2019-03-25T00:59:48.895Z,20.75
2019-03-25T01:02:16.198Z,24.30
2019-03-25T01:04:44.066Z,21.68
2019-03-25T01:07:11.998Z,23.47
2019-03-25T01:09:40.037Z,24.18
2019-03-25T01:12:07.907Z,21.40
2019-03-25T01:14:35.852Z,22.58
2019-03-25T01:17:03.825Z,24.45
2019-03-25T01:19:31.701Z,27.25
2019-03-25T01:21:59.972Z,25.27
2019-03-25T01:24:27.919Z,21.52
2019-03-25T01:26:55.893Z,28.47
2019-03-25T01:29:23.885Z,22.90
2019-03-25T01:31:51.845Z,24.20
2019-03-25T01:34:19.767Z,23.40
2019-03-25T01:36:47.653Z,20.45
2019-03-25T01:39:15.631Z,23.27
2019-03-25T01:41:43.526Z,20.30
2019-03-25T01:44:11.519Z,20.65
2019-03-25T01:46:39.407Z,20.48
2019-03-25T01:49:07.390Z,23.02
2019-03-25T01:51:35.378Z,23.20
2019-03-25T01:54:03.374Z,21.87
2019-03-25T01:56:31.381Z,22.00
2019-03-25T01:58:59.401Z,23.57
2019-03-25T02:01:27.388Z,20.25
2019-03-25T02:03:55.424Z,19.85
2019-03-25T02:06:23.441Z,21.90
2019-03-25T02:08:51.420Z,18.80
2019-03-25T02:11:19.305Z,20.10
2019-03-25T02:13:47.208Z,23.55
2019-03-25T02:16:15.214Z,21.37
2019-03-25T02:18:43.162Z,20.08
2019-03-25T02:21:11.134Z,19.75
2019-03-25T02:23:39.009Z,16.75
2019-03-25T02:26:06.906Z,22.32
2019-03-25T02:28:37.628Z,21.68
2019-03-25T02:31:05.639Z,22.20
2019-03-25T02:33:33.627Z,22.37
2019-03-25T02:36:01.716Z,21.07
2019-03-25T02:38:29.607Z,18.77
2019-03-25T02:40:57.678Z,17.30
2019-03-25T02:43:25.656Z,13.68
2019-03-25T02:45:53.558Z,15.55
2019-03-25T02:48:21.501Z,17.23
2019-03-25T02:50:49.494Z,18.02
2019-03-25T02:53:17.480Z,19.42
2019-03-25T02:55:45.424Z,15.68
2019-03-25T02:58:13.459Z,18.32
2019-03-25T03:00:41.425Z,22.95
2019-03-25T03:03:09.300Z,17.02
2019-03-25T03:05:37.272Z,16.25
2019-03-25T03:08:05.186Z,17.52
2019-03-25T03:10:33.304Z,18.67
2019-03-25T03:13:01.254Z,16.32
2019-03-25T03:15:29.239Z,18.45
2019-03-25T03:17:57.199Z,18.55
2019-03-25T03:20:25.195Z,19.73
2019-03-25T03:22:53.231Z,13.72
2019-03-25T03:25:21.180Z,14.75
2019-03-25T03:27:49.250Z,16.60
2019-03-25T03:30:17.253Z,16.05
2019-03-25T03:32:45.264Z,15.95
2019-03-25T03:35:13.283Z,18.67
2019-03-25T03:37:41.318Z,12.30
2019-03-25T03:40:09.321Z,21.17
2019-03-25T03:42:37.193Z,16.27
2019-03-25T03:45:05.258Z,13.32
2019-03-25T03:47:33.247Z,15.70
2019-03-25T03:50:01.161Z,13.05
2019-03-25T03:52:29.100Z,13.68
2019-03-25T03:54:57.000Z,17.12
2019-03-25T03:57:24.946Z,11.75
2019-03-25T03:59:52.889Z,14.40
2019-03-25T04:02:20.903Z,13.65
2019-03-25T04:04:48.796Z,12.25
2019-03-25T04:07:16.693Z,15.55
2019-03-25T04:09:44.592Z,12.37
2019-03-25T04:12:12.466Z,19.45
2019-03-25T04:14:40.357Z,13.08
2019-03-25T04:17:08.713Z,17.92
2019-03-25T04:19:36.671Z,19.82
2019-03-25T04:22:04.567Z,15.55
2019-03-25T04:24:32.607Z,16.82
2019-03-25T04:27:00.542Z,23.80
2019-03-25T04:29:28.550Z,16.27
2019-03-25T04:31:56.538Z,16.52
2019-03-25T04:34:24.573Z,18.60
2019-03-25T04:36:52.535Z,19.23
2019-03-25T04:39:20.425Z,16.32
2019-03-25T04:41:48.364Z,19.37
2019-03-25T04:44:16.270Z,15.80
2019-03-25T04:46:44.323Z,19.67
2019-03-25T04:49:12.242Z,17.75
2019-03-25T04:51:40.205Z,20.15
2019-03-25T04:54:08.462Z,17.62
2019-03-25T04:56:39.905Z,16.82
2019-03-25T04:59:05.947Z,14.68
2019-03-25T05:01:33.935Z,17.23
2019-03-25T05:04:01.855Z,18.10
2019-03-25T05:06:29.756Z,17.27
2019-03-25T05:08:57.738Z,17.12
2019-03-25T05:11:30.644Z,23.40
2019-03-25T05:13:55.400Z,20.70
2019-03-25T05:16:23.408Z,19.70
2019-03-25T05:18:51.376Z,18.70
2019-03-25T05:21:19.330Z,23.83
2019-03-25T05:23:47.196Z,20.60
2019-03-25T05:26:15.104Z,26.75
2019-03-25T05:28:43.036Z,24.82
2019-03-25T05:31:11.002Z,25.80
2019-03-25T05:33:39.325Z,19.27
2019-03-25T05:36:07.292Z,21.68
2019-03-25T05:38:35.160Z,19.52
2019-03-25T05:41:03.113Z,21.75
2019-03-25T05:43:31.026Z,17.57
2019-03-25T05:45:58.918Z,21.42
2019-03-25T05:48:26.790Z,18.95
2019-03-25T05:50:54.648Z,18.67
2019-03-25T05:53:23.127Z,16.67
2019-03-25T05:55:51.033Z,16.75
2019-03-25T05:58:19.014Z,20.72
2019-03-25T06:00:46.968Z,25.95
2019-03-25T06:03:14.972Z,18.05
2019-03-25T06:05:42.926Z,22.58
2019-03-25T06:08:10.795Z,19.25
2019-03-25T06:10:38.654Z,19.07
2019-03-25T06:13:06.547Z,22.07
2019-03-25T06:15:34.431Z,21.33
2019-03-25T06:18:02.453Z,17.77
2019-03-25T06:20:30.409Z,19.87
2019-03-25T06:22:58.276Z,17.80
2019-03-25T06:25:26.151Z,54.35
2019-03-25T06:27:54.555Z,127.53
2019-03-25T06:30:22.522Z,34.65
2019-03-25T06:32:50.415Z,33.55
2019-03-25T06:35:18.324Z,18.35
2019-03-25T06:37:46.328Z,26.35
2019-03-25T06:40:14.243Z,32.33
2019-03-25T06:42:42.101Z,28.90
2019-03-25T06:45:09.995Z,26.95
2019-03-25T06:47:37.976Z,30.55
2019-03-25T06:50:05.887Z,32.93
2019-03-25T06:52:33.866Z,20.77
2019-03-25T06:55:01.739Z,17.80
2019-03-25T06:57:30.028Z,17.20
2019-03-25T06:59:57.905Z,17.92
2019-03-25T07:02:25.854Z,86.67
2019-03-25T07:04:53.848Z,22.52
2019-03-25T07:07:21.798Z,18.98
2019-03-25T07:09:49.885Z,14.45
2019-03-25T07:12:17.871Z,20.23
2019-03-25T07:14:45.773Z,15.63
2019-03-25T07:17:13.668Z,13.43
2019-03-25T07:19:41.706Z,18.67
2019-03-25T07:22:09.650Z,18.17
2019-03-25T07:24:37.500Z,16.77
2019-03-25T07:27:05.498Z,21.00
2019-03-25T07:29:33.458Z,20.00
2019-03-25T07:32:01.361Z,16.35
2019-03-25T07:34:29.226Z,16.27
2019-03-25T07:36:57.111Z,14.73
2019-03-25T07:39:25.046Z,19.75
2019-03-25T07:41:53.019Z,17.10
2019-03-25T07:44:20.971Z,16.65
2019-03-25T07:46:48.862Z,16.57
2019-03-25T07:49:16.789Z,18.07
2019-03-25T07:51:44.686Z,22.20
2019-03-25T07:54:12.573Z,23.10
2019-03-25T07:56:40.522Z,13.40
2019-03-25T07:59:08.460Z,19.15
2019-03-25T08:01:36.417Z,15.90
2019-03-25T08:04:04.416Z,17.45
2019-03-25T08:06:32.245Z,18.52
2019-03-25T08:09:03.969Z,19.45
2019-03-25T08:11:29.819Z,21.68
2019-03-25T08:13:57.746Z,17.17
2019-03-25T08:16:25.632Z,17.35
2019-03-25T08:18:53.516Z,15.50
2019-03-25T08:21:21.386Z,18.50
2019-03-25T08:23:49.294Z,56.83
2019-03-25T08:26:17.292Z,35.03
2019-03-25T08:28:45.158Z,23.45
2019-03-25T08:31:13.049Z,18.07
2019-03-25T08:33:40.925Z,17.87
2019-03-25T08:36:08.761Z,17.45
2019-03-25T08:38:36.630Z,21.00
2019-03-25T08:41:04.686Z,10.32
2019-03-25T08:43:32.536Z,15.00
2019-03-25T08:46:00.440Z,13.98
2019-03-25T08:48:28.358Z,20.52
2019-03-25T08:50:56.263Z,14.23
2019-03-25T08:53:24.142Z,16.45
2019-03-25T08:55:51.975Z,22.48
2019-03-25T08:58:19.853Z,13.28
2019-03-25T09:00:47.733Z,15.90
2019-03-25T09:03:15.711Z,13.10
2019-03-25T09:05:43.552Z,14.63
2019-03-25T09:08:11.427Z,13.18
2019-03-25T09:10:39.266Z,9.80
2019-03-25T09:13:07.114Z,9.75
2019-03-25T09:15:35.008Z,10.20
2019-03-25T09:18:02.891Z,11.88
2019-03-25T09:20:30.808Z,16.52
2019-03-25T09:22:58.682Z,14.85
2019-03-25T09:25:26.537Z,25.35
2019-03-25T09:27:54.394Z,24.45
2019-03-25T09:30:22.254Z,21.87
2019-03-25T09:32:50.216Z,33.38
2019-03-25T09:35:18.167Z,14.78
2019-03-25T09:37:46.039Z,13.68
2019-03-25T09:40:13.914Z,12.80
2019-03-25T09:42:41.799Z,10.75
2019-03-25T09:45:09.701Z,12.47
2019-03-25T09:47:38.054Z,15.88
2019-03-25T09:50:06.207Z,9.90
2019-03-25T09:52:38.719Z,13.35
2019-03-25T09:55:03.759Z,14.28
2019-03-25T09:57:31.620Z,14.43
2019-03-25T09:59:59.598Z,12.82
2019-03-25T10:02:27.466Z,9.63
2019-03-25T10:04:55.352Z,15.70
2019-03-25T10:07:23.222Z,12.00
2019-03-25T10:09:51.107Z,11.33
2019-03-25T10:12:18.964Z,11.60
2019-03-25T10:14:46.882Z,9.63
2019-03-25T10:17:14.764Z,9.63
2019-03-25T10:19:42.623Z,7.75
2019-03-25T10:22:10.489Z,8.93
2019-03-25T10:24:38.378Z,6.80
2019-03-25T10:27:06.319Z,5.30
2019-03-25T10:29:34.222Z,6.55
2019-03-25T10:32:02.185Z,5.53
2019-03-25T10:34:30.022Z,7.92
2019-03-25T10:36:57.890Z,6.37
2019-03-25T10:39:25.730Z,6.50
2019-03-25T10:41:53.594Z,8.05
2019-03-25T10:44:21.514Z,8.30
2019-03-25T10:46:49.444Z,6.12
2019-03-25T10:49:17.322Z,9.30
2019-03-25T10:51:45.309Z,6.37
2019-03-25T10:54:13.232Z,5.05
2019-03-25T10:56:48.930Z,9.18
2019-03-25T10:59:10.765Z,8.70
2019-03-25T11:01:38.719Z,6.45
2019-03-25T11:04:06.552Z,10.80
2019-03-25T11:06:34.410Z,5.80
2019-03-25T11:09:02.273Z,8.30
2019-03-25T11:11:30.162Z,7.87
2019-03-25T11:13:58.026Z,7.72
2019-03-25T11:16:25.925Z,10.00
2019-03-25T11:18:53.807Z,8.00
2019-03-25T11:21:21.695Z,7.65
2019-03-25T11:23:49.534Z,8.53
2019-03-25T11:26:17.524Z,9.70
2019-03-25T11:28:45.541Z,8.73
2019-03-25T11:31:13.458Z,7.20
2019-03-25T11:33:41.476Z,8.78
2019-03-25T11:36:09.577Z,13.75
2019-03-25T11:38:37.533Z,4.47
2019-03-25T11:41:05.528Z,8.45
2019-03-25T11:43:33.401Z,5.85
2019-03-25T11:46:01.275Z,5.17
2019-03-25T11:48:29.250Z,4.78
2019-03-25T11:50:57.129Z,5.70
2019-03-25T11:53:24.976Z,6.17
2019-03-25T11:55:52.815Z,7.05
2019-03-25T11:58:20.706Z,5.50
2019-03-25T12:00:48.607Z,5.40
2019-03-25T12:03:16.583Z,4.50
2019-03-25T12:05:44.755Z,5.90
2019-03-25T12:08:12.732Z,11.28
2019-03-25T12:10:40.628Z,6.65
2019-03-25T12:13:08.489Z,5.97
2019-03-25T12:15:36.321Z,4.40
2019-03-25T12:18:04.651Z,6.30
2019-03-25T12:20:32.612Z,6.62
2019-03-25T12:23:00.465Z,7.33
2019-03-25T12:25:28.435Z,5.72
2019-03-25T12:27:56.404Z,7.28
2019-03-25T12:30:24.237Z,7.35
2019-03-25T12:32:52.243Z,8.83
2019-03-25T12:35:20.112Z,4.37
2019-03-25T12:37:48.068Z,4.72
2019-03-25T12:40:15.936Z,6.87
2019-03-25T12:42:43.949Z,7.95
2019-03-25T12:45:11.899Z,6.42
2019-03-25T12:47:39.886Z,5.03
2019-03-25T12:50:07.941Z,4.97
2019-03-25T12:52:35.884Z,5.65
2019-03-25T12:55:03.869Z,5.90
2019-03-25T12:57:31.746Z,4.62
2019-03-25T12:59:59.725Z,4.53
2019-03-25T13:02:27.671Z,5.42
2019-03-25T13:04:55.633Z,5.35
2019-03-25T13:07:23.501Z,4.83
2019-03-25T13:09:51.472Z,7.30
2019-03-25T13:12:19.351Z,4.28
2019-03-25T13:14:47.254Z,3.72
2019-03-25T13:17:15.233Z,3.90
2019-03-25T13:19:43.146Z,2.98
2019-03-25T13:22:11.062Z,3.72
2019-03-25T13:24:38.926Z,4.33
2019-03-25T13:27:06.840Z,3.27
2019-03-25T13:29:34.731Z,3.77
2019-03-25T13:32:02.666Z,3.67
2019-03-25T13:34:30.576Z,5.00
2019-03-25T13:36:58.478Z,6.12
2019-03-25T13:39:26.364Z,4.55
2019-03-25T13:41:54.306Z,4.33
2019-03-25T13:44:22.153Z,3.65
2019-03-25T13:46:50.049Z,4.95
2019-03-25T13:49:18.011Z,3.17
2019-03-25T13:51:46.226Z,4.00
2019-03-25T13:54:14.080Z,6.12
2019-03-25T13:56:41.949Z,5.20
2019-03-25T13:59:09.850Z,3.52
2019-03-25T14:01:37.694Z,4.08
2019-03-25T14:04:05.601Z,4.72
2019-03-25T14:06:33.482Z,4.62
2019-03-25T14:09:01.442Z,4.62
2019-03-25T14:11:29.373Z,4.20
2019-03-25T14:13:57.391Z,4.87
2019-03-25T14:16:27.408Z,5.10
2019-03-25T14:18:55.271Z,7.40
2019-03-25T14:21:23.192Z,6.45
2019-03-25T14:23:51.128Z,6.28
2019-03-25T14:26:19.022Z,6.75
2019-03-25T14:28:46.892Z,6.87
2019-03-25T14:31:14.802Z,5.72
2019-03-25T14:33:42.748Z,4.75
2019-03-25T14:36:10.742Z,4.65
2019-03-25T14:38:38.592Z,5.67
2019-03-25T14:41:06.581Z,4.62
2019-03-25T14:43:34.462Z,6.53
2019-03-25T14:46:02.582Z,6.72
2019-03-25T14:48:30.596Z,7.67
2019-03-25T14:50:58.477Z,5.62
2019-03-25T14:53:26.461Z,5.67
2019-03-25T14:55:54.360Z,7.37
2019-03-25T14:58:22.244Z,4.92
2019-03-25T15:00:51.117Z,6.90
2019-03-25T15:03:19.030Z,6.03
2019-03-25T15:05:47.014Z,6.22
2019-03-25T15:08:14.883Z,7.97
2019-03-25T15:10:53.010Z,11.43
2019-03-25T15:13:12.596Z,8.65
2019-03-25T15:15:40.474Z,6.20
2019-03-25T15:18:15.579Z,7.60
2019-03-25T15:20:38.067Z,7.17
2019-03-25T15:23:06.047Z,7.67
2019-03-25T15:25:34.142Z,7.70
2019-03-25T15:28:02.046Z,6.60
2019-03-25T15:30:35.914Z,8.00
2019-03-25T15:32:59.581Z,9.43
2019-03-25T15:35:27.579Z,7.22
2019-03-25T15:37:55.560Z,5.97
2019-03-25T15:40:23.538Z,7.03
2019-03-25T15:42:51.495Z,3.95
2019-03-25T15:45:19.496Z,7.20
2019-03-25T15:47:47.471Z,7.45
2019-03-25T15:50:15.535Z,7.90
2019-03-25T15:52:43.588Z,5.33
2019-03-25T15:55:11.517Z,5.55
2019-03-25T15:57:40.013Z,7.92
2019-03-25T16:00:08.112Z,6.75
2019-03-25T16:02:36.134Z,7.87
2019-03-25T16:05:04.137Z,8.03
2019-03-25T16:07:31.991Z,4.87
2019-03-25T16:09:59.987Z,6.95
2019-03-25T16:12:27.863Z,5.35
2019-03-25T16:14:55.780Z,6.53
2019-03-25T16:17:23.666Z,6.47
2019-03-25T16:19:51.664Z,17.67
2019-03-25T16:22:19.574Z,21.95
2019-03-25T16:24:47.453Z,9.53
2019-03-25T16:27:15.351Z,13.95
2019-03-25T16:29:43.282Z,6.20
2019-03-25T16:32:11.252Z,5.65
2019-03-25T16:34:39.180Z,7.37
2019-03-25T16:37:07.089Z,6.90
2019-03-25T16:39:34.994Z,9.33
2019-03-25T16:42:02.907Z,4.83
2019-03-25T16:44:30.779Z,7.60
2019-03-25T16:46:58.763Z,5.55
2019-03-25T16:49:26.671Z,5.83
2019-03-25T16:51:54.697Z,4.83
2019-03-25T16:54:22.775Z,7.60
2019-03-25T16:56:50.691Z,5.83
2019-03-25T16:59:18.610Z,6.72
2019-03-25T17:01:46.518Z,9.45
2019-03-25T17:04:14.386Z,10.65
2019-03-25T17:06:42.334Z,10.20
2019-03-25T17:09:10.407Z,6.78
2019-03-25T17:11:38.315Z,6.15
2019-03-25T17:14:06.220Z,4.72
2019-03-25T17:16:34.158Z,6.30
2019-03-25T17:19:02.363Z,6.85
2019-03-25T17:21:30.248Z,6.33
2019-03-25T17:23:58.135Z,7.15
2019-03-25T17:26:26.120Z,4.80
2019-03-25T17:28:54.151Z,5.40
2019-03-25T17:31:22.147Z,5.60
2019-03-25T17:33:50.092Z,5.25
2019-03-25T17:36:18.063Z,4.05
2019-03-25T17:38:46.014Z,3.37
2019-03-25T17:41:13.957Z,4.12
2019-03-25T17:43:41.977Z,3.87
2019-03-25T17:46:09.980Z,6.42
2019-03-25T17:48:37.926Z,4.80
2019-03-25T17:51:05.911Z,3.83
2019-03-25T17:53:33.838Z,3.75
2019-03-25T17:56:01.753Z,3.95
2019-03-25T17:58:29.650Z,3.47
2019-03-25T18:00:57.613Z,3.00
2019-03-25T18:03:25.546Z,3.65
2019-03-25T18:05:53.413Z,5.58
2019-03-25T18:08:21.378Z,5.83
2019-03-25T18:10:49.371Z,9.58
2019-03-25T18:13:22.313Z,12.65
2019-03-25T18:15:46.946Z,7.70
2019-03-25T18:18:14.965Z,4.20
2019-03-25T18:20:42.843Z,5.55
2019-03-25T18:23:10.828Z,4.45
2019-03-25T18:25:38.773Z,9.10
2019-03-25T18:28:06.757Z,10.00
2019-03-25T18:30:34.638Z,8.35
2019-03-25T18:33:03.115Z,6.58
2019-03-25T18:35:31.114Z,7.67
2019-03-25T18:37:59.047Z,8.05
2019-03-25T18:40:26.943Z,9.23
2019-03-25T18:42:55.017Z,7.30
2019-03-25T18:45:23.022Z,19.90
2019-03-25T18:47:53.212Z,21.77
2019-03-25T18:50:20.575Z,23.07
2019-03-25T18:52:48.567Z,16.15
2019-03-25T18:55:16.538Z,11.65
2019-03-25T18:57:44.580Z,10.65
2019-03-25T19:00:12.447Z,10.10
2019-03-25T19:02:40.368Z,6.33
2019-03-25T19:05:08.274Z,7.97
2019-03-25T19:07:36.211Z,7.20
2019-03-25T19:10:04.211Z,7.25
2019-03-25T19:12:32.232Z,6.45
2019-03-25T19:15:02.620Z,5.62
2019-03-25T19:17:29.796Z,3.52
2019-03-25T19:19:57.761Z,3.75
2019-03-25T19:22:25.734Z,2.67
2019-03-25T19:24:53.663Z,3.50
2019-03-25T19:27:21.715Z,3.15
2019-03-25T19:29:49.771Z,3.52
2019-03-25T19:32:17.756Z,4.00
2019-03-25T19:34:45.728Z,4.08
2019-03-25T19:37:13.747Z,3.92
2019-03-25T19:39:42.700Z,5.40
2019-03-25T19:42:10.624Z,3.70
2019-03-25T19:44:38.589Z,5.60
2019-03-25T19:47:06.565Z,5.70
2019-03-25T19:49:34.511Z,6.10
2019-03-25T19:52:02.568Z,6.55
2019-03-25T19:54:30.569Z,6.42
2019-03-25T19:56:58.606Z,4.53
2019-03-25T19:59:26.689Z,5.28
2019-03-25T20:01:55.045Z,4.95
2019-03-25T20:04:23.058Z,6.83
2019-03-25T20:06:50.976Z,5.40
2019-03-25T20:09:18.915Z,6.37
2019-03-25T20:11:46.892Z,5.10
2019-03-25T20:14:14.894Z,5.03
2019-03-25T20:16:42.876Z,4.45
2019-03-25T20:19:10.866Z,5.85
2019-03-25T20:21:39.178Z,8.08
2019-03-25T20:24:07.178Z,6.10
2019-03-25T20:26:35.598Z,5.55
2019-03-25T20:29:06.402Z,6.47
2019-03-25T20:31:33.252Z,6.08
2019-03-25T20:34:11.029Z,8.58
2019-03-25T20:36:30.952Z,7.30
2019-03-25T20:38:58.995Z,9.15
2019-03-25T20:41:27.018Z,8.53
2019-03-25T20:43:55.110Z,6.12
2019-03-25T20:46:23.619Z,8.05
2019-03-25T20:48:51.530Z,6.60
2019-03-25T20:51:19.777Z,8.23
2019-03-25T20:53:47.703Z,6.17
2019-03-25T20:56:34.728Z,8.05
2019-03-25T20:59:02.782Z,9.43
2019-03-25T21:01:30.713Z,10.15
2019-03-25T21:03:58.980Z,13.30
2019-03-25T21:06:27.164Z,8.05
2019-03-25T21:08:55.218Z,13.20
2019-03-25T21:11:23.251Z,10.30
2019-03-25T21:13:51.674Z,13.25
2019-03-25T21:16:19.836Z,9.63
2019-03-25T21:18:47.780Z,9.60
2019-03-25T21:21:15.793Z,8.18
2019-03-25T21:23:43.743Z,9.60
2019-03-25T21:26:11.758Z,10.93
2019-03-25T21:28:39.773Z,9.65
2019-03-25T21:31:07.649Z,8.30
2019-03-25T21:33:35.546Z,10.80
2019-03-25T21:36:03.602Z,10.45
2019-03-25T21:38:31.655Z,12.05
2019-03-25T21:41:02.466Z,12.10
2019-03-25T21:43:30.410Z,11.18
2019-03-25T21:45:58.383Z,12.20
2019-03-25T21:48:26.561Z,17.07
2019-03-25T21:50:54.606Z,15.35
2019-03-25T21:53:22.685Z,16.45
2019-03-25T21:55:51.121Z,18.07
2019-03-25T21:58:19.148Z,23.30
2019-03-25T22:00:47.117Z,24.87
2019-03-25T22:03:15.160Z,23.87
2019-03-25T22:05:43.120Z,26.25
2019-03-25T22:08:11.035Z,23.15
2019-03-25T22:10:43.062Z,26.62
2019-03-25T22:13:10.625Z,22.95
2019-03-25T22:15:38.529Z,20.80
2019-03-25T22:18:06.420Z,21.65
2019-03-25T22:20:34.313Z,20.10
2019-03-25T22:23:02.267Z,18.98
2019-03-25T22:25:30.345Z,22.00
2019-03-25T22:27:58.447Z,18.52
2019-03-25T22:30:26.434Z,19.92
2019-03-25T22:32:54.413Z,19.40
2019-03-25T22:35:22.468Z,16.57
2019-03-25T22:37:50.465Z,16.45
2019-03-25T22:40:18.350Z,14.75
2019-03-25T22:42:46.372Z,12.98
2019-03-25T22:45:14.304Z,16.32
2019-03-25T22:47:42.290Z,17.37
2019-03-25T22:50:10.188Z,12.25
2019-03-25T22:52:38.117Z,13.20
2019-03-25T22:55:06.153Z,14.13
2019-03-25T22:57:34.141Z,13.20
2019-03-25T23:00:02.121Z,17.87
2019-03-25T23:02:30.099Z,17.17
2019-03-25T23:04:57.963Z,15.75
2019-03-25T23:07:25.899Z,14.95
2019-03-25T23:09:53.858Z,11.83
2019-03-25T23:12:21.869Z,13.98
2019-03-25T23:14:49.849Z,15.30
2019-03-25T23:17:17.818Z,14.85
2019-03-25T23:19:46.127Z,11.73
2019-03-25T23:22:14.090Z,14.25
2019-03-25T23:24:42.062Z,16.97
2019-03-25T23:27:09.943Z,18.05
2019-03-25T23:29:37.818Z,18.67
2019-03-25T23:32:05.793Z,19.20
2019-03-25T23:34:33.737Z,14.87
2019-03-25T23:37:01.678Z,20.43
2019-03-25T23:39:29.686Z,12.43
2019-03-25T23:41:57.568Z,15.30
2019-03-25T23:44:25.433Z,16.95
2019-03-25T23:46:53.322Z,18.10
2019-03-25T23:49:21.263Z,15.88
2019-03-25T23:51:49.244Z,21.87
2019-03-25T23:54:17.127Z,18.02
2019-03-25T23:56:45.131Z,20.75
2019-03-25T23:59:14.717Z,17.15
